sensor_id;sensor_type;location;lat;lon;timestamp;pressure;altitude;pressure_sealevel;temperature;humidity
27429;BME280;14881;48.092;11.574;2022-07-29T05:02:29;95311.31;;;17.75;100.00
27429;BME280;14881;48.092;11.574;2022-07-29T05:04:56;95299.19;;;17.88;100.00
27429;BME280;14881;48.092;11.574;2022-07-29T05:07:24;95307.22;;;17.93;100.00
27429;BME280;14881;48.092;11.574;2022-07-29T05:09:52;95304.94;;;17.95;100.00
27429;BME280;14881;48.092;11.574;2022-07-29T05:12:20;95315.47;;;18.05;100.00
27429;BME280;14881;48.092;11.574;2022-07-29T05:14:47;95317.56;;;18.08;100.00
27429;BME280;14881;48.092;11.574;2022-07-29T05:17:15;95314.00;;;18.08;100.00
27429;BME280;14881;48.092;11.574;2022-07-29T05:19:44;95318.22;;;18.05;100.00
27429;BME280;14881;48.092;11.574;2022-07-29T05:22:12;95314.81;;;18.08;100.00
27429;BME280;14881;48.092;11.574;2022-07-29T05:24:40;95320.97;;;18.05;100.00
27429;BME280;14881;48.092;11.574;2022-07-29T05:27:08;95319.38;;;18.04;100.00
27429;BME280;14881;48.092;11.574;2022-07-29T05:29:36;95322.59;;;18.06;100.00
27429;BME280;14881;48.092;11.574;2022-07-29T05:32:11;95326.84;;;18.16;100.00
27429;BME280;14881;48.092;11.574;2022-07-29T05:34:39;95332.34;;;18.16;100.00
27429;BME280;14881;48.092;11.574;2022-07-29T05:37:18;95337.84;;;18.16;100.00
27429;BME280;14881;48.092;11.574;2022-07-29T05:39:46;95328.34;;;18.26;100.00
27429;BME280;14881;48.092;11.574;2022-07-29T05:42:22;95329.94;;;18.39;100.00
27429;BME280;14881;48.092;11.574;2022-07-29T05:44:50;95327.56;;;18.50;100.00
27429;BME280;14881;48.092;11.574;2022-07-29T05:47:18;95331.47;;;18.61;100.00
27429;BME280;14881;48.092;11.574;2022-07-29T05:49:46;95335.94;;;18.65;100.00
27429;BME280;14881;48.092;11.574;2022-07-29T05:52:14;95333.53;;;18.64;100.00
27429;BME280;14881;48.092;11.574;2022-07-29T05:54:43;95337.53;;;18.78;100.00
27429;BME280;14881;48.092;11.574;2022-07-29T05:57:15;95333.72;;;18.95;100.00
27429;BME280;14881;48.092;11.574;2022-07-29T05:59:43;95331.19;;;18.90;100.00
27429;BME280;14881;48.092;11.574;2022-07-29T06:02:11;95336.81;;;18.94;100.00
27429;BME280;14881;48.092;11.574;2022-07-29T06:04:38;95342.88;;;19.11;100.00
27429;BME280;14881;48.092;11.574;2022-07-29T06:07:07;95348.13;;;19.17;100.00
27429;BME280;14881;48.092;11.574;2022-07-29T06:09:35;95337.31;;;19.36;100.00
27429;BME280;14881;48.092;11.574;2022-07-29T06:12:04;95339.44;;;19.42;100.00
27429;BME280;14881;48.092;11.574;2022-07-29T06:14:32;95341.03;;;19.43;100.00
27429;BME280;14881;48.092;11.574;2022-07-29T06:17:00;95338.75;;;19.45;100.00
27429;BME280;14881;48.092;11.574;2022-07-29T06:19:28;95333.69;;;19.47;100.00
27429;BME280;14881;48.092;11.574;2022-07-29T06:21:55;95333.81;;;19.51;100.00
27429;BME280;14881;48.092;11.574;2022-07-29T06:24:23;95336.53;;;19.63;100.00
27429;BME280;14881;48.092;11.574;2022-07-29T06:26:51;95338.72;;;19.58;100.00
27429;BME280;14881;48.092;11.574;2022-07-29T06:29:20;95343.19;;;19.62;100.00
27429;BME280;14881;48.092;11.574;2022-07-29T06:31:48;95344.59;;;19.56;100.00
27429;BME280;14881;48.092;11.574;2022-07-29T06:34:16;95341.47;;;19.58;100.00
27429;BME280;14881;48.092;11.574;2022-07-29T06:36:44;95344.00;;;19.63;100.00
27429;BME280;14881;48.092;11.574;2022-07-29T06:39:13;95347.13;;;19.77;100.00
27429;BME280;14881;48.092;11.574;2022-07-29T06:41:41;95350.03;;;19.96;100.00
27429;BME280;14881;48.092;11.574;2022-07-29T06:44:11;95343.94;;;20.19;100.00
27429;BME280;14881;48.092;11.574;2022-07-29T06:46:40;95351.06;;;20.35;100.00
27429;BME280;14881;48.092;11.574;2022-07-29T06:49:08;95344.97;;;20.42;100.00
27429;BME280;14881;48.092;11.574;2022-07-29T06:51:36;95351.63;;;20.41;100.00
27429;BME280;14881;48.092;11.574;2022-07-29T06:54:04;95355.63;;;20.43;100.00
27429;BME280;14881;48.092;11.574;2022-07-29T06:56:33;95354.91;;;20.46;100.00
27429;BME280;14881;48.092;11.574;2022-07-29T06:59:06;95353.75;;;20.63;100.00
27429;BME280;14881;48.092;11.574;2022-07-29T07:01:35;95350.91;;;20.75;100.00
27429;BME280;14881;48.092;11.574;2022-07-29T07:04:04;95356.16;;;20.65;100.00
27429;BME280;14881;48.092;11.574;2022-07-29T07:06:32;95359.00;;;20.68;100.00
27429;BME280;14881;48.092;11.574;2022-07-29T07:09:00;95357.84;;;20.69;100.00
27429;BME280;14881;48.092;11.574;2022-07-29T07:11:28;95364.94;;;20.86;100.00
27429;BME280;14881;48.092;11.574;2022-07-29T07:13:56;95359.97;;;20.92;100.00
27429;BME280;14881;48.092;11.574;2022-07-29T07:16:29;95353.31;;;21.12;100.00
27429;BME280;14881;48.092;11.574;2022-07-29T07:18:57;95350.72;;;21.19;100.00
27429;BME280;14881;48.092;11.574;2022-07-29T07:21:27;95353.44;;;21.35;100.00
27429;BME280;14881;48.092;11.574;2022-07-29T07:23:57;95351.78;;;21.49;100.00
27429;BME280;14881;48.092;11.574;2022-07-29T07:26:25;95350.03;;;21.41;100.00
27429;BME280;14881;48.092;11.574;2022-07-29T07:28:54;95348.72;;;21.35;100.00
27429;BME280;14881;48.092;11.574;2022-07-29T07:31:21;95349.75;;;21.46;100.00
27429;BME280;14881;48.092;11.574;2022-07-29T07:33:49;95356.81;;;21.44;100.00
27429;BME280;14881;48.092;11.574;2022-07-29T07:36:18;95353.16;;;21.40;100.00
27429;BME280;14881;48.092;11.574;2022-07-29T07:38:47;95349.09;;;21.53;100.00
27429;BME280;14881;48.092;11.574;2022-07-29T07:41:15;95348.72;;;21.54;100.00
27429;BME280;14881;48.092;11.574;2022-07-29T07:43:43;95348.22;;;21.68;100.00
27429;BME280;14881;48.092;11.574;2022-07-29T07:46:11;95356.81;;;22.02;100.00
27429;BME280;14881;48.092;11.574;2022-07-29T07:48:39;95349.41;;;22.29;100.00
27429;BME280;14881;48.092;11.574;2022-07-29T07:51:07;95346.97;;;22.46;100.00
27429;BME280;14881;48.092;11.574;2022-07-29T07:53:34;95344.91;;;22.43;100.00
27429;BME280;14881;48.092;11.574;2022-07-29T07:56:04;95344.59;;;22.26;100.00
27429;BME280;14881;48.092;11.574;2022-07-29T07:58:37;95343.63;;;22.60;100.00
27429;BME280;14881;48.092;11.574;2022-07-29T08:01:05;95350.03;;;22.64;100.00
27429;BME280;14881;48.092;11.574;2022-07-29T08:03:33;95344.47;;;22.64;100.00
27429;BME280;14881;48.092;11.574;2022-07-29T08:06:01;95346.78;;;22.81;100.00
27429;BME280;14881;48.092;11.574;2022-07-29T08:08:29;95343.25;;;22.84;100.00
27429;BME280;14881;48.092;11.574;2022-07-29T08:10:57;95357.69;;;22.97;100.00
27429;BME280;14881;48.092;11.574;2022-07-29T08:13:29;95356.59;;;23.02;100.00
27429;BME280;14881;48.092;11.574;2022-07-29T08:15:58;95345.91;;;23.04;100.00
27429;BME280;14881;48.092;11.574;2022-07-29T08:18:29;95349.59;;;23.11;100.00
27429;BME280;14881;48.092;11.574;2022-07-29T08:20:57;95346.03;;;23.41;92.86
27429;BME280;14881;48.092;11.574;2022-07-29T08:23:26;95351.41;;;23.53;90.57
27429;BME280;14881;48.092;11.574;2022-07-29T08:26:15;95357.91;;;23.38;86.93
27429;BME280;14881;48.092;11.574;2022-07-29T08:28:45;95355.16;;;23.68;84.77
27429;BME280;14881;48.092;11.574;2022-07-29T08:31:16;95347.25;;;23.70;93.11
27429;BME280;14881;48.092;11.574;2022-07-29T08:33:44;95350.31;;;23.94;92.97
27429;BME280;14881;48.092;11.574;2022-07-29T08:36:12;95342.06;;;24.02;83.71
27429;BME280;14881;48.092;11.574;2022-07-29T08:38:40;95345.69;;;24.06;91.43
27429;BME280;14881;48.092;11.574;2022-07-29T08:41:08;95347.41;;;23.84;86.81
27429;BME280;14881;48.092;11.574;2022-07-29T08:43:36;95348.91;;;24.11;84.46
27429;BME280;14881;48.092;11.574;2022-07-29T08:46:05;95353.75;;;24.18;84.92
27429;BME280;14881;48.092;11.574;2022-07-29T08:48:33;95353.22;;;24.39;90.67
27429;BME280;14881;48.092;11.574;2022-07-29T08:51:02;95345.03;;;24.60;85.61
27429;BME280;14881;48.092;11.574;2022-07-29T08:53:31;95352.72;;;24.74;81.94
27429;BME280;14881;48.092;11.574;2022-07-29T08:56:00;95352.72;;;24.77;84.54
27429;BME280;14881;48.092;11.574;2022-07-29T08:58:32;95358.09;;;24.52;86.99
27429;BME280;14881;48.092;11.574;2022-07-29T09:01:03;95364.13;;;24.61;88.42
27429;BME280;14881;48.092;11.574;2022-07-29T09:03:40;95370.22;;;24.78;87.42
27429;BME280;14881;48.092;11.574;2022-07-29T09:06:08;95363.88;;;24.81;84.05
27429;BME280;14881;48.092;11.574;2022-07-29T09:08:37;95368.31;;;24.41;88.54
27429;BME280;14881;48.092;11.574;2022-07-29T09:11:05;95365.59;;;24.48;87.62
27429;BME280;14881;48.092;11.574;2022-07-29T09:13:33;95371.66;;;24.61;93.06
27429;BME280;14881;48.092;11.574;2022-07-29T09:16:03;95366.44;;;24.96;91.93
27429;BME280;14881;48.092;11.574;2022-07-29T09:18:37;95371.53;;;24.91;88.47
27429;BME280;14881;48.092;11.574;2022-07-29T09:21:08;95375.44;;;24.83;85.82
27429;BME280;14881;48.092;11.574;2022-07-29T09:24:03;95357.91;;;25.26;85.90
27429;BME280;14881;48.092;11.574;2022-07-29T09:26:32;95352.47;;;25.44;84.95
27429;BME280;14881;48.092;11.574;2022-07-29T09:29:07;95348.28;;;25.79;78.82
27429;BME280;14881;48.092;11.574;2022-07-29T09:31:37;95345.47;;;25.75;77.39
27429;BME280;14881;48.092;11.574;2022-07-29T09:34:06;95349.41;;;25.67;80.33
27429;BME280;14881;48.092;11.574;2022-07-29T09:36:43;95344.78;;;26.03;78.17
27429;BME280;14881;48.092;11.574;2022-07-29T09:39:13;95343.13;;;25.84;77.57
27429;BME280;14881;48.092;11.574;2022-07-29T09:41:48;95350.34;;;25.99;76.68
27429;BME280;14881;48.092;11.574;2022-07-29T09:44:16;95347.16;;;26.01;75.77
27429;BME280;14881;48.092;11.574;2022-07-29T09:46:57;95344.66;;;25.71;76.00
27429;BME280;14881;48.092;11.574;2022-07-29T09:49:28;95341.34;;;25.44;78.81
27429;BME280;14881;48.092;11.574;2022-07-29T09:52:03;95345.91;;;25.15;79.40
27429;BME280;14881;48.092;11.574;2022-07-29T09:54:32;95349.13;;;25.21;84.23
27429;BME280;14881;48.092;11.574;2022-07-29T09:57:04;95349.97;;;25.32;86.09
27429;BME280;14881;48.092;11.574;2022-07-29T09:59:32;95350.41;;;25.34;82.56
27429;BME280;14881;48.092;11.574;2022-07-29T10:02:01;95355.91;;;25.23;81.42
27429;BME280;14881;48.092;11.574;2022-07-29T10:04:39;95347.91;;;25.18;82.49
27429;BME280;14881;48.092;11.574;2022-07-29T10:07:08;95350.22;;;25.06;83.92
27429;BME280;14881;48.092;11.574;2022-07-29T10:09:36;95347.69;;;24.90;85.33
27429;BME280;14881;48.092;11.574;2022-07-29T10:12:06;95347.09;;;24.67;87.76
27429;BME280;14881;48.092;11.574;2022-07-29T10:14:36;95350.28;;;24.69;91.95
27429;BME280;14881;48.092;11.574;2022-07-29T10:17:05;95345.53;;;24.69;96.42
27429;BME280;14881;48.092;11.574;2022-07-29T10:19:34;95348.69;;;24.68;95.14
27429;BME280;14881;48.092;11.574;2022-07-29T10:22:04;95355.84;;;24.69;90.71
27429;BME280;14881;48.092;11.574;2022-07-29T10:24:35;95347.75;;;24.49;93.01
27429;BME280;14881;48.092;11.574;2022-07-29T10:27:04;95352.91;;;24.51;93.09
27429;BME280;14881;48.092;11.574;2022-07-29T10:29:33;95351.66;;;24.41;94.01
27429;BME280;14881;48.092;11.574;2022-07-29T10:32:09;95352.03;;;24.43;96.04
27429;BME280;14881;48.092;11.574;2022-07-29T10:34:51;95355.19;;;24.42;95.47
27429;BME280;14881;48.092;11.574;2022-07-29T10:37:30;95358.75;;;24.39;98.78
27429;BME280;14881;48.092;11.574;2022-07-29T10:40:11;95348.47;;;24.43;97.27
27429;BME280;14881;48.092;11.574;2022-07-29T10:43:09;95352.69;;;24.29;96.13
27429;BME280;14881;48.092;11.574;2022-07-29T10:45:44;95353.88;;;24.28;97.89
27429;BME280;14881;48.092;11.574;2022-07-29T10:48:15;95357.03;;;24.27;98.87
27429;BME280;14881;48.092;11.574;2022-07-29T10:50:55;95345.34;;;24.48;94.47
27429;BME280;14881;48.092;11.574;2022-07-29T10:53:23;95352.25;;;24.64;96.18
27429;BME280;14881;48.092;11.574;2022-07-29T10:56:00;95345.06;;;25.08;90.23
27429;BME280;14881;48.092;11.574;2022-07-29T10:58:32;95344.97;;;25.59;92.17
27429;BME280;14881;48.092;11.574;2022-07-29T11:01:27;95340.41;;;26.02;87.57
27429;BME280;14881;48.092;11.574;2022-07-29T11:04:04;95335.66;;;26.10;80.04
27429;BME280;14881;48.092;11.574;2022-07-29T11:07:06;95328.91;;;26.11;80.20
27429;BME280;14881;48.092;11.574;2022-07-29T11:09:35;95327.34;;;26.24;76.79
27429;BME280;14881;48.092;11.574;2022-07-29T11:12:45;95337.78;;;26.66;81.03
27429;BME280;14881;48.092;11.574;2022-07-29T11:15:14;95328.22;;;27.06;74.09
27429;BME280;14881;48.092;11.574;2022-07-29T11:18:05;95323.44;;;27.03;69.91
27429;BME280;14881;48.092;11.574;2022-07-29T11:20:41;95336.97;;;26.76;74.80
27429;BME280;14881;48.092;11.574;2022-07-29T11:23:19;95336.56;;;26.85;75.23
27429;BME280;14881;48.092;11.574;2022-07-29T11:26:13;95321.81;;;27.20;74.56
27429;BME280;14881;48.092;11.574;2022-07-29T11:28:51;95324.94;;;27.61;71.40
27429;BME280;14881;48.092;11.574;2022-07-29T11:31:32;95317.31;;;27.72;66.83
27429;BME280;14881;48.092;11.574;2022-07-29T11:34:18;95308.13;;;27.75;65.79
27429;BME280;14881;48.092;11.574;2022-07-29T11:37:17;95309.00;;;27.65;58.45
27429;BME280;14881;48.092;11.574;2022-07-29T11:40:15;95311.75;;;27.54;60.13
27429;BME280;14881;48.092;11.574;2022-07-29T11:42:46;95308.59;;;27.52;58.00
27429;BME280;14881;48.092;11.574;2022-07-29T11:45:21;95309.41;;;27.42;60.19
27429;BME280;14881;48.092;11.574;2022-07-29T11:48:15;95316.63;;;27.36;58.82
27429;BME280;14881;48.092;11.574;2022-07-29T11:50:58;95308.63;;;27.45;61.41
27429;BME280;14881;48.092;11.574;2022-07-29T11:53:26;95309.03;;;27.36;62.13
27429;BME280;14881;48.092;11.574;2022-07-29T11:55:59;95295.47;;;27.42;58.99
27429;BME280;14881;48.092;11.574;2022-07-29T11:58:29;95301.84;;;27.43;58.36
27429;BME280;14881;48.092;11.574;2022-07-29T12:00:58;95294.66;;;27.38;58.62
27429;BME280;14881;48.092;11.574;2022-07-29T12:03:30;95298.25;;;27.38;56.93
27429;BME280;14881;48.092;11.574;2022-07-29T12:06:18;95296.75;;;27.16;60.30
27429;BME280;14881;48.092;11.574;2022-07-29T12:08:46;95290.72;;;27.32;62.55
27429;BME280;14881;48.092;11.574;2022-07-29T12:11:15;95288.28;;;27.45;59.67
27429;BME280;14881;48.092;11.574;2022-07-29T12:13:47;95286.28;;;27.45;58.23
27429;BME280;14881;48.092;11.574;2022-07-29T12:16:16;95285.13;;;27.32;58.38
27429;BME280;14881;48.092;11.574;2022-07-29T12:18:58;95283.59;;;27.17;54.80
27429;BME280;14881;48.092;11.574;2022-07-29T12:21:28;95285.59;;;27.09;55.87
27429;BME280;14881;48.092;11.574;2022-07-29T12:23:57;95287.59;;;26.98;58.77
27429;BME280;14881;48.092;11.574;2022-07-29T12:26:35;95284.00;;;27.08;58.03
27429;BME280;14881;48.092;11.574;2022-07-29T12:29:03;95280.41;;;26.90;56.80
27429;BME280;14881;48.092;11.574;2022-07-29T12:31:42;95283.19;;;27.08;59.96
27429;BME280;14881;48.092;11.574;2022-07-29T12:34:11;95279.22;;;27.05;57.15
27429;BME280;14881;48.092;11.574;2022-07-29T12:36:40;95274.81;;;27.04;56.49
27429;BME280;14881;48.092;11.574;2022-07-29T12:39:08;95276.44;;;26.94;56.65
27429;BME280;14881;48.092;11.574;2022-07-29T12:41:38;95276.03;;;26.96;60.66
27429;BME280;14881;48.092;11.574;2022-07-29T12:44:06;95270.03;;;27.08;60.04
27429;BME280;14881;48.092;11.574;2022-07-29T12:46:33;95265.59;;;27.25;61.76
27429;BME280;14881;48.092;11.574;2022-07-29T12:49:04;95269.25;;;27.11;61.11
27429;BME280;14881;48.092;11.574;2022-07-29T12:51:33;95266.81;;;27.31;61.76
27429;BME280;14881;48.092;11.574;2022-07-29T12:54:04;95264.03;;;27.24;62.45
27429;BME280;14881;48.092;11.574;2022-07-29T12:56:33;95270.84;;;27.12;64.10
27429;BME280;14881;48.092;11.574;2022-07-29T12:59:17;95277.63;;;26.76;61.78
27429;BME280;14881;48.092;11.574;2022-07-29T13:01:47;95284.41;;;26.53;62.53
27429;BME280;14881;48.092;11.574;2022-07-29T13:04:28;95273.25;;;26.60;63.76
27429;BME280;14881;48.092;11.574;2022-07-29T13:07:01;95272.44;;;26.53;68.07
27429;BME280;14881;48.092;11.574;2022-07-29T13:09:37;95284.34;;;26.25;64.61
27429;BME280;14881;48.092;11.574;2022-07-29T13:12:06;95282.00;;;26.38;66.48
27429;BME280;14881;48.092;11.574;2022-07-29T13:14:37;95286.38;;;26.35;65.76
27429;BME280;14881;48.092;11.574;2022-07-29T13:17:07;95285.16;;;26.25;64.50
27429;BME280;14881;48.092;11.574;2022-07-29T13:19:38;95283.13;;;26.15;65.36
27429;BME280;14881;48.092;11.574;2022-07-29T13:22:07;95288.69;;;25.97;65.59
27429;BME280;14881;48.092;11.574;2022-07-29T13:24:49;95278.69;;;25.82;67.73
27429;BME280;14881;48.092;11.574;2022-07-29T13:27:18;95275.09;;;25.75;68.06
27429;BME280;14881;48.092;11.574;2022-07-29T13:29:46;95278.63;;;25.64;68.26
27429;BME280;14881;48.092;11.574;2022-07-29T13:32:17;95286.13;;;25.57;68.64
27429;BME280;14881;48.092;11.574;2022-07-29T13:34:55;95277.75;;;25.50;70.32
27429;BME280;14881;48.092;11.574;2022-07-29T13:37:24;95279.31;;;25.44;70.97
27429;BME280;14881;48.092;11.574;2022-07-29T13:39:56;95278.09;;;25.38;73.02
27429;BME280;14881;48.092;11.574;2022-07-29T13:42:24;95285.19;;;25.31;74.40
27429;BME280;14881;48.092;11.574;2022-07-29T13:44:52;95287.97;;;25.24;79.80
27429;BME280;14881;48.092;11.574;2022-07-29T13:47:21;95275.16;;;25.13;80.98
27429;BME280;14881;48.092;11.574;2022-07-29T13:50:00;95275.16;;;25.13;81.21
27429;BME280;14881;48.092;11.574;2022-07-29T13:52:28;95283.91;;;25.11;80.41
27429;BME280;14881;48.092;11.574;2022-07-29T13:54:56;95270.41;;;25.10;82.53
27429;BME280;14881;48.092;11.574;2022-07-29T13:57:24;95279.22;;;25.26;89.54
27429;BME280;14881;48.092;11.574;2022-07-29T13:59:52;95273.28;;;25.31;98.23
27429;BME280;14881;48.092;11.574;2022-07-29T14:02:20;95259.84;;;25.51;85.99
27429;BME280;14881;48.092;11.574;2022-07-29T14:04:51;95270.22;;;25.57;88.50
27429;BME280;14881;48.092;11.574;2022-07-29T14:07:22;95256.72;;;25.59;85.47
27429;BME280;14881;48.092;11.574;2022-07-29T14:09:50;95255.91;;;25.59;80.79
27429;BME280;14881;48.092;11.574;2022-07-29T14:12:18;95253.13;;;25.55;81.84
27429;BME280;14881;48.092;11.574;2022-07-29T14:14:46;95253.41;;;25.29;84.45
27429;BME280;14881;48.092;11.574;2022-07-29T14:17:13;95247.91;;;25.40;89.80
27429;BME280;14881;48.092;11.574;2022-07-29T14:19:41;95247.84;;;25.29;85.36
27429;BME280;14881;48.092;11.574;2022-07-29T14:22:09;95251.00;;;25.24;85.06
27429;BME280;14881;48.092;11.574;2022-07-29T14:24:38;95251.41;;;25.26;85.38
27429;BME280;14881;48.092;11.574;2022-07-29T14:27:07;95248.97;;;25.10;85.88
27429;BME280;14881;48.092;11.574;2022-07-29T14:29:35;95250.97;;;25.17;87.12
27429;BME280;14881;48.092;11.574;2022-07-29T14:32:04;95254.88;;;25.05;86.88
27429;BME280;14881;48.092;11.574;2022-07-29T14:34:33;95254.78;;;24.91;87.83
27429;BME280;14881;48.092;11.574;2022-07-29T14:37:00;95244.44;;;24.91;86.45
27429;BME280;14881;48.092;11.574;2022-07-29T14:39:29;95246.72;;;24.79;83.99
27429;BME280;14881;48.092;11.574;2022-07-29T14:41:58;95252.72;;;24.84;84.53
27429;BME280;14881;48.092;11.574;2022-07-29T14:44:27;95253.47;;;24.74;83.64
27429;BME280;14881;48.092;11.574;2022-07-29T14:46:57;95259.03;;;24.74;84.41
27429;BME280;14881;48.092;11.574;2022-07-29T14:49:32;95261.78;;;24.71;85.77
27429;BME280;14881;48.092;11.574;2022-07-29T14:52:00;95263.78;;;24.74;88.41
27429;BME280;14881;48.092;11.574;2022-07-29T14:54:28;95260.72;;;24.89;94.25
27429;BME280;14881;48.092;11.574;2022-07-29T14:56:56;95273.88;;;24.96;85.08
27429;BME280;14881;48.092;11.574;2022-07-29T14:59:26;95272.28;;;24.95;87.36
27429;BME280;14881;48.092;11.574;2022-07-29T15:01:54;95275.94;;;25.06;88.88
27429;BME280;14881;48.092;11.574;2022-07-29T15:04:22;95275.56;;;25.15;87.53
27429;BME280;14881;48.092;11.574;2022-07-29T15:06:50;95281.06;;;25.01;85.65
27429;BME280;14881;48.092;11.574;2022-07-29T15:09:18;95274.75;;;25.07;85.42
27429;BME280;14881;48.092;11.574;2022-07-29T15:11:46;95276.66;;;24.96;81.46
27429;BME280;14881;48.092;11.574;2022-07-29T15:14:14;95279.22;;;24.68;82.65
27429;BME280;14881;48.092;11.574;2022-07-29T15:16:43;95273.78;;;24.85;84.86
27429;BME280;14881;48.092;11.574;2022-07-29T15:19:13;95269.91;;;24.97;87.87
27429;BME280;14881;48.092;11.574;2022-07-29T15:21:41;95270.56;;;24.76;89.01
27429;BME280;14881;48.092;11.574;2022-07-29T15:24:25;95272.09;;;24.70;89.58
27429;BME280;14881;48.092;11.574;2022-07-29T15:26:53;95268.84;;;24.61;91.72
27429;BME280;14881;48.092;11.574;2022-07-29T15:29:21;95262.59;;;24.75;92.23
27429;BME280;14881;48.092;11.574;2022-07-29T15:31:50;95271.75;;;24.75;91.80
27429;BME280;14881;48.092;11.574;2022-07-29T15:34:18;95269.66;;;24.65;85.43
27429;BME280;14881;48.092;11.574;2022-07-29T15:36:46;95273.69;;;24.71;86.93
27429;BME280;14881;48.092;11.574;2022-07-29T15:39:19;95272.13;;;24.74;88.03
27429;BME280;14881;48.092;11.574;2022-07-29T15:41:47;95272.94;;;24.78;89.86
27429;BME280;14881;48.092;11.574;2022-07-29T15:44:15;95271.31;;;24.70;90.83
27429;BME280;14881;48.092;11.574;2022-07-29T15:46:43;95274.53;;;24.75;92.92
27429;BME280;14881;48.092;11.574;2022-07-29T15:49:30;95281.25;;;24.74;93.07
27429;BME280;14881;48.092;11.574;2022-07-29T15:52:16;95283.88;;;24.53;96.48
27429;BME280;14881;48.092;11.574;2022-07-29T15:54:52;95290.00;;;24.28;98.68
27429;BME280;14881;48.092;11.574;2022-07-29T15:57:20;95302.63;;;24.22;100.00
27429;BME280;14881;48.092;11.574;2022-07-29T15:59:47;95302.16;;;24.17;100.00
27429;BME280;14881;48.092;11.574;2022-07-29T16:02:15;95307.72;;;24.17;100.00
27429;BME280;14881;48.092;11.574;2022-07-29T16:04:44;95304.75;;;23.99;100.00
27429;BME280;14881;48.092;11.574;2022-07-29T16:07:13;95309.56;;;24.02;100.00
27429;BME280;14881;48.092;11.574;2022-07-29T16:09:41;95312.28;;;23.99;100.00
27429;BME280;14881;48.092;11.574;2022-07-29T16:12:09;95303.34;;;23.79;100.00
27429;BME280;14881;48.092;11.574;2022-07-29T16:14:41;95301.84;;;23.85;100.00
27429;BME280;14881;48.092;11.574;2022-07-29T16:17:09;95307.34;;;23.81;100.00
27429;BME280;14881;48.092;11.574;2022-07-29T16:19:40;95301.63;;;23.67;100.00
27429;BME280;14881;48.092;11.574;2022-07-29T16:22:10;95298.91;;;23.71;100.00
27429;BME280;14881;48.092;11.574;2022-07-29T16:24:38;95307.94;;;23.64;100.00
27429;BME280;14881;48.092;11.574;2022-07-29T16:27:06;95301.00;;;23.51;100.00
27429;BME280;14881;48.092;11.574;2022-07-29T16:29:33;95305.88;;;23.57;100.00
27429;BME280;14881;48.092;11.574;2022-07-29T16:32:03;95311.31;;;23.50;100.00
27429;BME280;14881;48.092;11.574;2022-07-29T16:34:32;95306.22;;;23.52;100.00
27429;BME280;14881;48.092;11.574;2022-07-29T16:36:59;95315.53;;;23.41;100.00
27429;BME280;14881;48.092;11.574;2022-07-29T16:39:29;95322.78;;;23.19;100.00
27429;BME280;14881;48.092;11.574;2022-07-29T16:41:57;95330.94;;;23.38;100.00
27429;BME280;14881;48.092;11.574;2022-07-29T16:44:31;95328.16;;;23.38;100.00
27429;BME280;14881;48.092;11.574;2022-07-29T16:47:00;95334.69;;;23.23;100.00
27429;BME280;14881;48.092;11.574;2022-07-29T16:49:29;95342.50;;;23.14;100.00
27429;BME280;14881;48.092;11.574;2022-07-29T16:51:57;95339.88;;;23.24;100.00
27429;BME280;14881;48.092;11.574;2022-07-29T16:54:24;95348.13;;;23.21;100.00
27429;BME280;14881;48.092;11.574;2022-07-29T16:56:54;95347.75;;;23.22;100.00
27429;BME280;14881;48.092;11.574;2022-07-29T16:59:22;95348.47;;;23.16;100.00
27429;BME280;14881;48.092;11.574;2022-07-29T17:01:50;95370.53;;;23.09;100.00
27429;BME280;14881;48.092;11.574;2022-07-29T17:04:17;95373.59;;;23.00;100.00
27429;BME280;14881;48.092;11.574;2022-07-29T17:06:48;95376.13;;;22.86;100.00
27429;BME280;14881;48.092;11.574;2022-07-29T17:09:16;95373.09;;;22.72;100.00
27429;BME280;14881;48.092;11.574;2022-07-29T17:11:44;95380.44;;;22.61;100.00
27429;BME280;14881;48.092;11.574;2022-07-29T17:14:19;95377.22;;;22.58;100.00
27429;BME280;14881;48.092;11.574;2022-07-29T17:16:50;95390.94;;;22.51;100.00
27429;BME280;14881;48.092;11.574;2022-07-29T17:19:27;95388.88;;;22.45;100.00
27429;BME280;14881;48.092;11.574;2022-07-29T17:21:55;95393.41;;;22.34;100.00
27429;BME280;14881;48.092;11.574;2022-07-29T17:24:34;95393.88;;;22.16;100.00
27429;BME280;14881;48.092;11.574;2022-07-29T17:27:03;95397.59;;;22.05;100.00
27429;BME280;14881;48.092;11.574;2022-07-29T17:29:33;95407.78;;;21.81;100.00
27429;BME280;14881;48.092;11.574;2022-07-29T17:32:01;95413.16;;;21.74;100.00
27429;BME280;14881;48.092;11.574;2022-07-29T17:34:29;95420.78;;;21.62;100.00
27429;BME280;14881;48.092;11.574;2022-07-29T17:36:57;95422.94;;;21.52;100.00
27429;BME280;14881;48.092;11.574;2022-07-29T17:39:25;95431.09;;;21.45;100.00
27429;BME280;14881;48.092;11.574;2022-07-29T17:41:53;95434.94;;;21.41;100.00
27429;BME280;14881;48.092;11.574;2022-07-29T17:44:21;95439.13;;;21.35;100.00
27429;BME280;14881;48.092;11.574;2022-07-29T17:46:50;95435.06;;;21.29;100.00
27429;BME280;14881;48.092;11.574;2022-07-29T17:49:18;95432.56;;;21.24;100.00
27429;BME280;14881;48.092;11.574;2022-07-29T17:51:46;95455.38;;;21.05;100.00
27429;BME280;14881;48.092;11.574;2022-07-29T17:54:13;95454.59;;;20.89;100.00
27429;BME280;14881;48.092;11.574;2022-07-29T17:56:41;95461.38;;;20.75;100.00
27429;BME280;14881;48.092;11.574;2022-07-29T17:59:09;95464.28;;;20.67;100.00
27429;BME280;14881;48.092;11.574;2022-07-29T18:01:37;95468.63;;;20.52;100.00
27429;BME280;14881;48.092;11.574;2022-07-29T18:04:08;95462.31;;;20.52;100.00
27429;BME280;14881;48.092;11.574;2022-07-29T18:06:37;95465.59;;;20.41;100.00